sensor_id;sensor_type;location;lat;lon;timestamp;temperature;humidity
8539;DHT22;4307;53.868;11.680;2022-08-25T00:00:21;18.90;99.90
8539;DHT22;4307;53.868;11.680;2022-08-25T00:02:47;18.90;99.90
8539;DHT22;4307;53.868;11.680;2022-08-25T00:05:16;18.90;99.90
8539;DHT22;4307;53.868;11.680;2022-08-25T00:07:42;18.90;99.90
8539;DHT22;4307;53.868;11.680;2022-08-25T00:10:09;19.00;99.90
8539;DHT22;4307;53.868;11.680;2022-08-25T00:12:36;18.90;99.90
8539;DHT22;4307;53.868;11.680;2022-08-25T00:15:05;18.90;99.90
8539;DHT22;4307;53.868;11.680;2022-08-25T00:17:33;19.00;99.90
8539;DHT22;4307;53.868;11.680;2022-08-25T00:20:00;19.00;99.90
8539;DHT22;4307;53.868;11.680;2022-08-25T00:22:29;19.00;99.90
8539;DHT22;4307;53.868;11.680;2022-08-25T00:24:55;18.90;99.90
8539;DHT22;4307;53.868;11.680;2022-08-25T00:27:23;19.00;99.90
8539;DHT22;4307;53.868;11.680;2022-08-25T00:29:50;18.90;99.90
8539;DHT22;4307;53.868;11.680;2022-08-25T00:32:17;18.90;99.90
8539;DHT22;4307;53.868;11.680;2022-08-25T00:34:45;18.90;99.90
8539;DHT22;4307;53.868;11.680;2022-08-25T00:37:12;18.90;99.90
8539;DHT22;4307;53.868;11.680;2022-08-25T00:39:42;18.90;99.90
8539;DHT22;4307;53.868;11.680;2022-08-25T00:42:09;18.90;99.90
8539;DHT22;4307;53.868;11.680;2022-08-25T00:44:37;18.90;99.90
8539;DHT22;4307;53.868;11.680;2022-08-25T00:47:05;18.90;99.90
8539;DHT22;4307;53.868;11.680;2022-08-25T00:49:36;18.80;99.90
8539;DHT22;4307;53.868;11.680;2022-08-25T00:52:08;18.80;99.90
8539;DHT22;4307;53.868;11.680;2022-08-25T00:54:38;18.80;99.90
8539;DHT22;4307;53.868;11.680;2022-08-25T00:57:11;18.80;99.90
8539;DHT22;4307;53.868;11.680;2022-08-25T00:59:39;18.80;99.90
8539;DHT22;4307;53.868;11.680;2022-08-25T01:02:07;18.70;99.90
8539;DHT22;4307;53.868;11.680;2022-08-25T01:04:34;18.80;99.90
8539;DHT22;4307;53.868;11.680;2022-08-25T01:07:03;18.70;99.90
8539;DHT22;4307;53.868;11.680;2022-08-25T01:09:31;18.70;99.90
8539;DHT22;4307;53.868;11.680;2022-08-25T01:11:59;18.70;99.90
8539;DHT22;4307;53.868;11.680;2022-08-25T01:14:28;18.70;99.90
8539;DHT22;4307;53.868;11.680;2022-08-25T01:16:56;18.60;99.90
8539;DHT22;4307;53.868;11.680;2022-08-25T01:19:24;18.70;99.90
8539;DHT22;4307;53.868;11.680;2022-08-25T01:21:53;18.60;99.90
8539;DHT22;4307;53.868;11.680;2022-08-25T01:24:23;18.60;99.90
8539;DHT22;4307;53.868;11.680;2022-08-25T01:26:51;18.60;99.90
8539;DHT22;4307;53.868;11.680;2022-08-25T01:29:18;18.50;99.90
8539;DHT22;4307;53.868;11.680;2022-08-25T01:31:52;18.40;99.90
8539;DHT22;4307;53.868;11.680;2022-08-25T01:34:23;18.40;99.90
8539;DHT22;4307;53.868;11.680;2022-08-25T01:36:50;18.40;99.90
8539;DHT22;4307;53.868;11.680;2022-08-25T01:39:19;18.30;99.90
8539;DHT22;4307;53.868;11.680;2022-08-25T01:42:07;18.30;99.90
8539;DHT22;4307;53.868;11.680;2022-08-25T01:44:37;18.30;99.90
8539;DHT22;4307;53.868;11.680;2022-08-25T01:47:06;18.30;99.90
8539;DHT22;4307;53.868;11.680;2022-08-25T01:49:33;18.30;99.90
8539;DHT22;4307;53.868;11.680;2022-08-25T01:52:05;18.40;99.90
8539;DHT22;4307;53.868;11.680;2022-08-25T01:54:33;18.40;99.90
8539;DHT22;4307;53.868;11.680;2022-08-25T01:57:00;18.40;99.90
8539;DHT22;4307;53.868;11.680;2022-08-25T01:59:27;18.40;99.90
8539;DHT22;4307;53.868;11.680;2022-08-25T02:01:54;18.50;99.90
8539;DHT22;4307;53.868;11.680;2022-08-25T02:04:21;18.50;99.90
8539;DHT22;4307;53.868;11.680;2022-08-25T02:06:48;18.50;99.90
8539;DHT22;4307;53.868;11.680;2022-08-25T02:09:16;18.50;99.90
8539;DHT22;4307;53.868;11.680;2022-08-25T02:11:46;18.60;99.90
8539;DHT22;4307;53.868;11.680;2022-08-25T02:14:14;18.60;99.90
8539;DHT22;4307;53.868;11.680;2022-08-25T02:16:44;18.70;99.90
8539;DHT22;4307;53.868;11.680;2022-08-25T02:19:13;18.60;99.90
8539;DHT22;4307;53.868;11.680;2022-08-25T02:21:42;18.60;99.90
8539;DHT22;4307;53.868;11.680;2022-08-25T02:24:09;18.60;99.90
8539;DHT22;4307;53.868;11.680;2022-08-25T02:26:37;18.60;99.90
8539;DHT22;4307;53.868;11.680;2022-08-25T02:29:06;18.70;99.90
8539;DHT22;4307;53.868;11.680;2022-08-25T02:31:34;18.70;99.90
8539;DHT22;4307;53.868;11.680;2022-08-25T02:34:02;18.70;99.90
8539;DHT22;4307;53.868;11.680;2022-08-25T02:36:29;18.70;99.90
8539;DHT22;4307;53.868;11.680;2022-08-25T02:38:57;18.70;99.90
8539;DHT22;4307;53.868;11.680;2022-08-25T02:41:26;18.80;99.90
8539;DHT22;4307;53.868;11.680;2022-08-25T02:43:53;18.80;99.90
8539;DHT22;4307;53.868;11.680;2022-08-25T02:46:22;18.80;99.90
8539;DHT22;4307;53.868;11.680;2022-08-25T02:48:49;18.80;99.90
8539;DHT22;4307;53.868;11.680;2022-08-25T02:51:18;18.90;99.90
8539;DHT22;4307;53.868;11.680;2022-08-25T02:53:45;18.90;99.90
8539;DHT22;4307;53.868;11.680;2022-08-25T02:56:13;18.90;99.90
8539;DHT22;4307;53.868;11.680;2022-08-25T02:58:40;18.90;99.90
8539;DHT22;4307;53.868;11.680;2022-08-25T03:01:08;18.90;99.90
8539;DHT22;4307;53.868;11.680;2022-08-25T03:03:38;18.90;99.90
8539;DHT22;4307;53.868;11.680;2022-08-25T03:06:06;19.00;99.90
8539;DHT22;4307;53.868;11.680;2022-08-25T03:08:34;19.00;99.90
8539;DHT22;4307;53.868;11.680;2022-08-25T03:11:01;19.00;99.90
8539;DHT22;4307;53.868;11.680;2022-08-25T03:13:28;19.10;99.90
8539;DHT22;4307;53.868;11.680;2022-08-25T03:15:57;19.10;99.90
8539;DHT22;4307;53.868;11.680;2022-08-25T03:18:24;19.10;99.90
8539;DHT22;4307;53.868;11.680;2022-08-25T03:20:53;19.10;99.90
8539;DHT22;4307;53.868;11.680;2022-08-25T03:23:21;19.10;99.90
8539;DHT22;4307;53.868;11.680;2022-08-25T03:25:48;19.10;99.90
8539;DHT22;4307;53.868;11.680;2022-08-25T03:28:33;19.10;99.90
8539;DHT22;4307;53.868;11.680;2022-08-25T03:31:01;19.10;99.90
8539;DHT22;4307;53.868;11.680;2022-08-25T03:33:29;19.10;99.90
8539;DHT22;4307;53.868;11.680;2022-08-25T03:35:58;19.10;99.90
8539;DHT22;4307;53.868;11.680;2022-08-25T03:38:26;19.10;99.90
8539;DHT22;4307;53.868;11.680;2022-08-25T03:40:53;19.10;99.90
8539;DHT22;4307;53.868;11.680;2022-08-25T03:43:20;19.10;99.90
8539;DHT22;4307;53.868;11.680;2022-08-25T03:45:47;19.10;99.90
8539;DHT22;4307;53.868;11.680;2022-08-25T03:48:16;19.10;99.90
8539;DHT22;4307;53.868;11.680;2022-08-25T03:50:44;19.10;99.90
8539;DHT22;4307;53.868;11.680;2022-08-25T03:53:12;19.10;99.90
8539;DHT22;4307;53.868;11.680;2022-08-25T03:55:39;19.10;99.90
8539;DHT22;4307;53.868;11.680;2022-08-25T03:58:06;19.10;99.90
8539;DHT22;4307;53.868;11.680;2022-08-25T04:00:33;19.10;99.90
8539;DHT22;4307;53.868;11.680;2022-08-25T04:03:00;19.00;99.90
8539;DHT22;4307;53.868;11.680;2022-08-25T04:05:27;19.00;99.90
8539;DHT22;4307;53.868;11.680;2022-08-25T04:07:54;19.00;99.90
8539;DHT22;4307;53.868;11.680;2022-08-25T04:10:22;19.00;99.90
8539;DHT22;4307;53.868;11.680;2022-08-25T04:12:49;19.00;99.90
8539;DHT22;4307;53.868;11.680;2022-08-25T04:15:16;19.00;99.90
8539;DHT22;4307;53.868;11.680;2022-08-25T04:17:43;19.00;99.90
8539;DHT22;4307;53.868;11.680;2022-08-25T04:20:11;19.10;99.90
8539;DHT22;4307;53.868;11.680;2022-08-25T04:22:38;19.10;99.90
8539;DHT22;4307;53.868;11.680;2022-08-25T04:25:06;19.10;99.90
8539;DHT22;4307;53.868;11.680;2022-08-25T04:27:36;19.20;99.90
8539;DHT22;4307;53.868;11.680;2022-08-25T04:30:04;19.20;99.90
8539;DHT22;4307;53.868;11.680;2022-08-25T04:32:31;19.20;99.90
8539;DHT22;4307;53.868;11.680;2022-08-25T04:34:58;19.20;99.90
8539;DHT22;4307;53.868;11.680;2022-08-25T04:37:25;19.20;99.90
8539;DHT22;4307;53.868;11.680;2022-08-25T04:39:52;19.30;99.90
8539;DHT22;4307;53.868;11.680;2022-08-25T04:42:19;19.30;99.90
8539;DHT22;4307;53.868;11.680;2022-08-25T04:44:47;19.40;99.90
8539;DHT22;4307;53.868;11.680;2022-08-25T04:47:14;19.30;99.90
8539;DHT22;4307;53.868;11.680;2022-08-25T04:49:41;19.40;99.90
8539;DHT22;4307;53.868;11.680;2022-08-25T04:52:08;19.30;99.90
8539;DHT22;4307;53.868;11.680;2022-08-25T04:54:35;19.40;99.90
8539;DHT22;4307;53.868;11.680;2022-08-25T04:57:02;19.40;99.90
8539;DHT22;4307;53.868;11.680;2022-08-25T04:59:29;19.40;99.90
8539;DHT22;4307;53.868;11.680;2022-08-25T05:01:58;19.50;99.90
8539;DHT22;4307;53.868;11.680;2022-08-25T05:04:26;19.50;99.90
8539;DHT22;4307;53.868;11.680;2022-08-25T05:06:53;19.50;99.90
8539;DHT22;4307;53.868;11.680;2022-08-25T05:09:21;19.60;99.90
8539;DHT22;4307;53.868;11.680;2022-08-25T05:11:47;19.60;99.90
8539;DHT22;4307;53.868;11.680;2022-08-25T05:14:15;19.60;99.90
8539;DHT22;4307;53.868;11.680;2022-08-25T05:16:46;19.70;99.90
8539;DHT22;4307;53.868;11.680;2022-08-25T05:19:15;19.70;99.90
8539;DHT22;4307;53.868;11.680;2022-08-25T05:21:42;19.70;99.90
8539;DHT22;4307;53.868;11.680;2022-08-25T05:24:09;19.70;99.90
8539;DHT22;4307;53.868;11.680;2022-08-25T05:26:36;19.70;99.90
8539;DHT22;4307;53.868;11.680;2022-08-25T05:29:04;19.70;99.90
8539;DHT22;4307;53.868;11.680;2022-08-25T05:31:31;19.70;99.90
8539;DHT22;4307;53.868;11.680;2022-08-25T05:33:59;19.70;99.90
8539;DHT22;4307;53.868;11.680;2022-08-25T05:36:31;19.70;99.90
8539;DHT22;4307;53.868;11.680;2022-08-25T05:38:59;19.80;99.90
8539;DHT22;4307;53.868;11.680;2022-08-25T05:41:28;19.80;99.90
8539;DHT22;4307;53.868;11.680;2022-08-25T05:43:55;19.80;99.90
8539;DHT22;4307;53.868;11.680;2022-08-25T05:46:22;19.80;99.90
8539;DHT22;4307;53.868;11.680;2022-08-25T05:48:49;19.80;99.90
8539;DHT22;4307;53.868;11.680;2022-08-25T05:51:16;19.80;99.90
8539;DHT22;4307;53.868;11.680;2022-08-25T05:53:47;19.80;99.90
8539;DHT22;4307;53.868;11.680;2022-08-25T05:56:15;19.80;99.90
8539;DHT22;4307;53.868;11.680;2022-08-25T05:58:42;19.80;99.90
8539;DHT22;4307;53.868;11.680;2022-08-25T06:01:18;19.90;99.90
8539;DHT22;4307;53.868;11.680;2022-08-25T06:04:03;19.90;99.90
8539;DHT22;4307;53.868;11.680;2022-08-25T06:06:30;19.90;99.90
8539;DHT22;4307;53.868;11.680;2022-08-25T06:08:58;20.00;99.90
8539;DHT22;4307;53.868;11.680;2022-08-25T06:11:26;20.00;99.90
8539;DHT22;4307;53.868;11.680;2022-08-25T06:13:54;20.10;99.90
8539;DHT22;4307;53.868;11.680;2022-08-25T06:16:20;20.10;99.90
8539;DHT22;4307;53.868;11.680;2022-08-25T06:18:47;20.20;99.90
8539;DHT22;4307;53.868;11.680;2022-08-25T06:21:14;20.30;99.90
8539;DHT22;4307;53.868;11.680;2022-08-25T06:23:41;20.30;99.90
8539;DHT22;4307;53.868;11.680;2022-08-25T06:26:11;20.30;99.90
8539;DHT22;4307;53.868;11.680;2022-08-25T06:28:38;20.30;99.90
8539;DHT22;4307;53.868;11.680;2022-08-25T06:31:05;20.30;99.90
8539;DHT22;4307;53.868;11.680;2022-08-25T06:33:32;20.40;99.90
8539;DHT22;4307;53.868;11.680;2022-08-25T06:35:58;20.40;99.90
8539;DHT22;4307;53.868;11.680;2022-08-25T06:38:25;20.40;99.90
8539;DHT22;4307;53.868;11.680;2022-08-25T06:40:52;20.50;99.90
8539;DHT22;4307;53.868;11.680;2022-08-25T06:43:22;20.50;99.90
8539;DHT22;4307;53.868;11.680;2022-08-25T06:45:49;20.50;99.90
8539;DHT22;4307;53.868;11.680;2022-08-25T06:48:16;20.60;99.90
8539;DHT22;4307;53.868;11.680;2022-08-25T06:50:43;20.60;99.90
8539;DHT22;4307;53.868;11.680;2022-08-25T06:53:10;20.60;99.90
8539;DHT22;4307;53.868;11.680;2022-08-25T06:55:37;20.70;99.90
8539;DHT22;4307;53.868;11.680;2022-08-25T06:58:04;20.80;99.90
8539;DHT22;4307;53.868;11.680;2022-08-25T07:00:32;20.80;99.90
8539;DHT22;4307;53.868;11.680;2022-08-25T07:02:59;20.90;99.90
8539;DHT22;4307;53.868;11.680;2022-08-25T07:05:26;20.90;99.90
8539;DHT22;4307;53.868;11.680;2022-08-25T07:07:53;20.90;99.90
8539;DHT22;4307;53.868;11.680;2022-08-25T07:10:23;20.90;99.90
8539;DHT22;4307;53.868;11.680;2022-08-25T07:12:50;20.90;99.90
8539;DHT22;4307;53.868;11.680;2022-08-25T07:15:17;20.90;99.90
8539;DHT22;4307;53.868;11.680;2022-08-25T07:17:45;20.90;99.90
8539;DHT22;4307;53.868;11.680;2022-08-25T07:20:12;21.00;99.90
8539;DHT22;4307;53.868;11.680;2022-08-25T07:22:39;21.10;99.90
8539;DHT22;4307;53.868;11.680;2022-08-25T07:25:06;21.10;99.90
8539;DHT22;4307;53.868;11.680;2022-08-25T07:27:33;21.10;99.90
8539;DHT22;4307;53.868;11.680;2022-08-25T07:30:00;21.20;99.90
8539;DHT22;4307;53.868;11.680;2022-08-25T07:32:27;21.30;99.90
8539;DHT22;4307;53.868;11.680;2022-08-25T07:34:55;21.40;99.90
8539;DHT22;4307;53.868;11.680;2022-08-25T07:37:39;21.50;99.90
8539;DHT22;4307;53.868;11.680;2022-08-25T07:40:09;21.50;99.90
8539;DHT22;4307;53.868;11.680;2022-08-25T07:42:36;21.50;99.90
8539;DHT22;4307;53.868;11.680;2022-08-25T07:45:04;21.60;99.90
8539;DHT22;4307;53.868;11.680;2022-08-25T07:47:31;21.60;99.90
8539;DHT22;4307;53.868;11.680;2022-08-25T07:49:59;21.60;99.90
8539;DHT22;4307;53.868;11.680;2022-08-25T07:52:25;21.70;99.90
8539;DHT22;4307;53.868;11.680;2022-08-25T07:54:52;21.80;99.90
8539;DHT22;4307;53.868;11.680;2022-08-25T07:57:20;21.80;99.90
8539;DHT22;4307;53.868;11.680;2022-08-25T07:59:49;21.90;99.90
8539;DHT22;4307;53.868;11.680;2022-08-25T08:02:15;21.90;99.90
8539;DHT22;4307;53.868;11.680;2022-08-25T08:04:42;21.90;99.90
8539;DHT22;4307;53.868;11.680;2022-08-25T08:07:11;21.90;99.90
8539;DHT22;4307;53.868;11.680;2022-08-25T08:09:38;21.90;99.90
8539;DHT22;4307;53.868;11.680;2022-08-25T08:12:06;22.00;99.90
8539;DHT22;4307;53.868;11.680;2022-08-25T08:14:32;22.00;99.90
8539;DHT22;4307;53.868;11.680;2022-08-25T08:17:04;22.10;99.90
8539;DHT22;4307;53.868;11.680;2022-08-25T08:19:31;22.10;99.90
8539;DHT22;4307;53.868;11.680;2022-08-25T08:21:58;22.20;99.90
8539;DHT22;4307;53.868;11.680;2022-08-25T08:24:27;22.30;99.90
8539;DHT22;4307;53.868;11.680;2022-08-25T08:26:54;22.40;99.90
8539;DHT22;4307;53.868;11.680;2022-08-25T08:29:21;22.50;99.90
8539;DHT22;4307;53.868;11.680;2022-08-25T08:31:48;22.60;99.90
8539;DHT22;4307;53.868;11.680;2022-08-25T08:34:15;22.90;99.90
8539;DHT22;4307;53.868;11.680;2022-08-25T08:36:42;23.20;99.90
8539;DHT22;4307;53.868;11.680;2022-08-25T08:39:09;23.40;99.90
8539;DHT22;4307;53.868;11.680;2022-08-25T08:45:00;24.10;99.90
8539;DHT22;4307;53.868;11.680;2022-08-25T08:47:38;24.20;99.90
8539;DHT22;4307;53.868;11.680;2022-08-25T08:50:17;24.40;99.90
8539;DHT22;4307;53.868;11.680;2022-08-25T08:52:50;24.50;99.90
8539;DHT22;4307;53.868;11.680;2022-08-25T08:55:22;24.70;99.90
8539;DHT22;4307;53.868;11.680;2022-08-25T08:57:54;24.90;99.90
8539;DHT22;4307;53.868;11.680;2022-08-25T09:00:23;25.10;99.90
8539;DHT22;4307;53.868;11.680;2022-08-25T09:02:52;25.30;99.90
8539;DHT22;4307;53.868;11.680;2022-08-25T09:05:24;25.50;99.90
8539;DHT22;4307;53.868;11.680;2022-08-25T09:07:55;25.40;99.90
8539;DHT22;4307;53.868;11.680;2022-08-25T09:10:23;25.40;99.90
8539;DHT22;4307;53.868;11.680;2022-08-25T09:13:02;25.40;99.90
8539;DHT22;4307;53.868;11.680;2022-08-25T09:15:37;25.40;99.90
8539;DHT22;4307;53.868;11.680;2022-08-25T09:18:28;25.30;99.90
8539;DHT22;4307;53.868;11.680;2022-08-25T09:21:03;25.50;99.90
8539;DHT22;4307;53.868;11.680;2022-08-25T09:23:37;25.60;99.90
8539;DHT22;4307;53.868;11.680;2022-08-25T09:26:24;25.70;99.90
8539;DHT22;4307;53.868;11.680;2022-08-25T09:29:02;25.60;99.90
8539;DHT22;4307;53.868;11.680;2022-08-25T09:31:32;25.40;99.90
8539;DHT22;4307;53.868;11.680;2022-08-25T09:34:02;25.40;99.90
8539;DHT22;4307;53.868;11.680;2022-08-25T09:36:30;25.40;99.90
8539;DHT22;4307;53.868;11.680;2022-08-25T09:38:58;25.50;99.90
8539;DHT22;4307;53.868;11.680;2022-08-25T09:41:44;25.50;99.90
8539;DHT22;4307;53.868;11.680;2022-08-25T09:44:25;25.90;99.90
8539;DHT22;4307;53.868;11.680;2022-08-25T09:46:57;26.20;99.90
8539;DHT22;4307;53.868;11.680;2022-08-25T09:49:40;26.50;99.90
8539;DHT22;4307;53.868;11.680;2022-08-25T09:52:23;26.70;99.90
8539;DHT22;4307;53.868;11.680;2022-08-25T09:54:52;26.90;99.90
8539;DHT22;4307;53.868;11.680;2022-08-25T09:57:31;27.00;99.90
8539;DHT22;4307;53.868;11.680;2022-08-25T10:00:13;27.10;99.90
8539;DHT22;4307;53.868;11.680;2022-08-25T10:02:40;27.30;99.90
8539;DHT22;4307;53.868;11.680;2022-08-25T10:05:19;27.60;99.90
8539;DHT22;4307;53.868;11.680;2022-08-25T10:07:50;28.10;99.90
8539;DHT22;4307;53.868;11.680;2022-08-25T10:10:23;28.40;99.90
8539;DHT22;4307;53.868;11.680;2022-08-25T10:12:51;28.70;99.90
8539;DHT22;4307;53.868;11.680;2022-08-25T10:15:23;29.10;98.70
8539;DHT22;4307;53.868;11.680;2022-08-25T10:17:50;29.20;97.90
8539;DHT22;4307;53.868;11.680;2022-08-25T10:20:21;29.30;97.30
8539;DHT22;4307;53.868;11.680;2022-08-25T10:22:49;29.10;96.80
8539;DHT22;4307;53.868;11.680;2022-08-25T10:25:23;28.90;96.40
8539;DHT22;4307;53.868;11.680;2022-08-25T10:28:01;28.50;96.50
8539;DHT22;4307;53.868;11.680;2022-08-25T10:30:50;28.40;97.30
8539;DHT22;4307;53.868;11.680;2022-08-25T10:33:26;28.70;97.40
8539;DHT22;4307;53.868;11.680;2022-08-25T10:36:00;29.10;96.80
8539;DHT22;4307;53.868;11.680;2022-08-25T10:38:35;29.30;95.90
8539;DHT22;4307;53.868;11.680;2022-08-25T10:41:17;29.30;95.40
8539;DHT22;4307;53.868;11.680;2022-08-25T10:43:52;29.40;95.30
8539;DHT22;4307;53.868;11.680;2022-08-25T10:46:30;29.60;95.10
8539;DHT22;4307;53.868;11.680;2022-08-25T10:49:02;29.60;94.20
8539;DHT22;4307;53.868;11.680;2022-08-25T10:51:40;29.70;94.20
8539;DHT22;4307;53.868;11.680;2022-08-25T10:54:19;29.90;93.70
8539;DHT22;4307;53.868;11.680;2022-08-25T10:56:57;29.60;93.50
8539;DHT22;4307;53.868;11.680;2022-08-25T10:59:34;29.40;93.60
8539;DHT22;4307;53.868;11.680;2022-08-25T11:02:32;29.20;93.70
8539;DHT22;4307;53.868;11.680;2022-08-25T11:05:07;29.20;94.00
8539;DHT22;4307;53.868;11.680;2022-08-25T11:07:37;29.10;93.80
8539;DHT22;4307;53.868;11.680;2022-08-25T11:10:09;29.10;93.70
8539;DHT22;4307;53.868;11.680;2022-08-25T11:12:39;29.00;93.50
8539;DHT22;4307;53.868;11.680;2022-08-25T11:15:09;29.20;93.20
8539;DHT22;4307;53.868;11.680;2022-08-25T11:17:42;29.60;92.70
8539;DHT22;4307;53.868;11.680;2022-08-25T11:20:15;29.90;92.20
8539;DHT22;4307;53.868;11.680;2022-08-25T11:22:54;29.90;91.80
8539;DHT22;4307;53.868;11.680;2022-08-25T11:25:27;29.90;91.40
8539;DHT22;4307;53.868;11.680;2022-08-25T11:27:59;29.90;91.40
8539;DHT22;4307;53.868;11.680;2022-08-25T11:30:28;30.30;91.40
8539;DHT22;4307;53.868;11.680;2022-08-25T11:32:57;30.70;91.20
8539;DHT22;4307;53.868;11.680;2022-08-25T11:35:28;30.90;90.40
8539;DHT22;4307;53.868;11.680;2022-08-25T11:38:10;30.50;89.70
8539;DHT22;4307;53.868;11.680;2022-08-25T11:40:51;30.10;90.00
8539;DHT22;4307;53.868;11.680;2022-08-25T11:43:38;29.40;90.20
8539;DHT22;4307;53.868;11.680;2022-08-25T11:46:22;28.90;90.90
8539;DHT22;4307;53.868;11.680;2022-08-25T11:48:59;29.20;91.00
8539;DHT22;4307;53.868;11.680;2022-08-25T11:51:31;29.30;90.70
8539;DHT22;4307;53.868;11.680;2022-08-25T11:54:14;29.30;90.60
8539;DHT22;4307;53.868;11.680;2022-08-25T11:56:42;29.30;90.40
8539;DHT22;4307;53.868;11.680;2022-08-25T12:00:00;29.60;89.60
8539;DHT22;4307;53.868;11.680;2022-08-25T12:02:30;30.00;88.90
8539;DHT22;4307;53.868;11.680;2022-08-25T12:04:58;30.30;88.20
8539;DHT22;4307;53.868;11.680;2022-08-25T12:08:00;30.30;87.20
8539;DHT22;4307;53.868;11.680;2022-08-25T12:10:57;30.80;86.20
8539;DHT22;4307;53.868;11.680;2022-08-25T12:13:40;31.30;85.50
8539;DHT22;4307;53.868;11.680;2022-08-25T12:16:37;31.80;84.30
8539;DHT22;4307;53.868;11.680;2022-08-25T12:19:24;32.40;81.90
8539;DHT22;4307;53.868;11.680;2022-08-25T12:21:55;32.70;80.10
8539;DHT22;4307;53.868;11.680;2022-08-25T12:24:36;32.70;78.90
8539;DHT22;4307;53.868;11.680;2022-08-25T12:27:19;32.30;77.70
8539;DHT22;4307;53.868;11.680;2022-08-25T12:29:50;32.50;79.30
8539;DHT22;4307;53.868;11.680;2022-08-25T12:35:32;33.40;76.20
8539;DHT22;4307;53.868;11.680;2022-08-25T12:38:06;32.70;75.40
8539;DHT22;4307;53.868;11.680;2022-08-25T12:40:37;31.90;76.20
8539;DHT22;4307;53.868;11.680;2022-08-25T12:43:08;31.20;78.00
8539;DHT22;4307;53.868;11.680;2022-08-25T12:45:39;30.90;79.30
8539;DHT22;4307;53.868;11.680;2022-08-25T12:51:25;31.40;79.80
8539;DHT22;4307;53.868;11.680;2022-08-25T12:53:56;31.80;78.40
8539;DHT22;4307;53.868;11.680;2022-08-25T12:56:27;32.20;77.20
8539;DHT22;4307;53.868;11.680;2022-08-25T12:59:09;32.40;76.90
8539;DHT22;4307;53.868;11.680;2022-08-25T13:01:52;32.20;75.70
8539;DHT22;4307;53.868;11.680;2022-08-25T13:04:39;31.50;76.50
8539;DHT22;4307;53.868;11.680;2022-08-25T13:07:20;31.20;77.50
8539;DHT22;4307;53.868;11.680;2022-08-25T13:10:23;31.60;77.40
8539;DHT22;4307;53.868;11.680;2022-08-25T13:12:57;32.10;77.50
8539;DHT22;4307;53.868;11.680;2022-08-25T13:15:32;32.60;76.00
8539;DHT22;4307;53.868;11.680;2022-08-25T13:18:13;32.40;74.80
8539;DHT22;4307;53.868;11.680;2022-08-25T13:20:40;32.20;74.00
8539;DHT22;4307;53.868;11.680;2022-08-25T13:23:09;31.80;74.20
8539;DHT22;4307;53.868;11.680;2022-08-25T13:25:39;31.40;74.70
8539;DHT22;4307;53.868;11.680;2022-08-25T13:28:20;31.40;75.70
8539;DHT22;4307;53.868;11.680;2022-08-25T13:30:55;31.70;76.00
8539;DHT22;4307;53.868;11.680;2022-08-25T13:33:22;31.50;76.60
8539;DHT22;4307;53.868;11.680;2022-08-25T13:35:50;31.90;76.60
8539;DHT22;4307;53.868;11.680;2022-08-25T13:38:40;32.60;75.20
8539;DHT22;4307;53.868;11.680;2022-08-25T13:41:07;33.10;73.40
8539;DHT22;4307;53.868;11.680;2022-08-25T13:43:36;33.40;72.90
8539;DHT22;4307;53.868;11.680;2022-08-25T13:46:05;33.50;71.00
8539;DHT22;4307;53.868;11.680;2022-08-25T13:48:34;33.40;70.80
8539;DHT22;4307;53.868;11.680;2022-08-25T13:51:19;33.00;70.70
8539;DHT22;4307;53.868;11.680;2022-08-25T13:53:50;32.60;70.40
8539;DHT22;4307;53.868;11.680;2022-08-25T13:56:28;32.20;71.60
8539;DHT22;4307;53.868;11.680;2022-08-25T13:58:56;31.90;71.90
8539;DHT22;4307;53.868;11.680;2022-08-25T14:01:25;31.40;73.40
8539;DHT22;4307;53.868;11.680;2022-08-25T14:04:23;31.10;73.80
8539;DHT22;4307;53.868;11.680;2022-08-25T14:07:07;30.90;74.70
8539;DHT22;4307;53.868;11.680;2022-08-25T14:09:44;30.70;74.70
8539;DHT22;4307;53.868;11.680;2022-08-25T14:12:29;30.40;75.60
8539;DHT22;4307;53.868;11.680;2022-08-25T14:14:57;30.20;76.20
8539;DHT22;4307;53.868;11.680;2022-08-25T14:17:25;29.90;76.60
